sensor_id;sensor_type;location;lat;lon;timestamp;P1;durP1;ratioP1;P2;durP2;ratioP2
69404;SDS011;57084;52.046;5.632;2022-10-13T00:00:00;13.6;;;5.7;;
69404;SDS011;57084;52.046;5.632;2022-10-13T00:01:06;13.6;;;5.7;;
69404;SDS011;57084;52.046;5.632;2022-10-13T00:02:00;13.6;;;5.7;;
69404;SDS011;57084;52.046;5.632;2022-10-13T00:03:00;13.6;;;5.7;;
69404;SDS011;57084;52.046;5.632;2022-10-13T00:04:00;13.6;;;6.0;;
69404;SDS011;57084;52.046;5.632;2022-10-13T00:05:00;13.6;;;6.0;;
69404;SDS011;57084;52.046;5.632;2022-10-13T00:06:04;13.6;;;6.0;;
69404;SDS011;57084;52.046;5.632;2022-10-13T00:07:00;13.6;;;6.0;;
69404;SDS011;57084;52.046;5.632;2022-10-13T00:08:00;13.6;;;6.0;;
69404;SDS011;57084;52.046;5.632;2022-10-13T00:09:00;16.0;;;6.3;;
69404;SDS011;57084;52.046;5.632;2022-10-13T00:10:00;16.0;;;6.3;;
69404;SDS011;57084;52.046;5.632;2022-10-13T00:11:00;16.0;;;6.3;;
69404;SDS011;57084;52.046;5.632;2022-10-13T00:12:00;16.0;;;6.3;;
69404;SDS011;57084;52.046;5.632;2022-10-13T00:13:00;16.0;;;6.3;;
69404;SDS011;57084;52.046;5.632;2022-10-13T00:14:02;14.1;;;6.2;;
69404;SDS011;57084;52.046;5.632;2022-10-13T00:15:00;14.1;;;6.2;;
69404;SDS011;57084;52.046;5.632;2022-10-13T00:16:01;14.1;;;6.2;;
69404;SDS011;57084;52.046;5.632;2022-10-13T00:17:00;14.1;;;6.2;;
69404;SDS011;57084;52.046;5.632;2022-10-13T00:18:00;14.1;;;6.2;;
69404;SDS011;57084;52.046;5.632;2022-10-13T00:19:00;18.4;;;6.3;;
69404;SDS011;57084;52.046;5.632;2022-10-13T00:20:00;18.4;;;6.3;;
69404;SDS011;57084;52.046;5.632;2022-10-13T00:21:00;18.4;;;6.3;;
69404;SDS011;57084;52.046;5.632;2022-10-13T00:22:00;18.4;;;6.3;;
69404;SDS011;57084;52.046;5.632;2022-10-13T00:23:00;18.4;;;6.3;;
69404;SDS011;57084;52.046;5.632;2022-10-13T00:24:00;14.1;;;6.1;;
69404;SDS011;57084;52.046;5.632;2022-10-13T00:25:00;14.1;;;6.1;;
69404;SDS011;57084;52.046;5.632;2022-10-13T00:26:01;14.1;;;6.1;;
69404;SDS011;57084;52.046;5.632;2022-10-13T00:27:00;14.1;;;6.1;;
69404;SDS011;57084;52.046;5.632;2022-10-13T00:28:00;14.1;;;6.1;;
69404;SDS011;57084;52.046;5.632;2022-10-13T00:29:00;18.0;;;6.3;;
69404;SDS011;57084;52.046;5.632;2022-10-13T00:30:00;18.0;;;6.3;;
69404;SDS011;57084;52.046;5.632;2022-10-13T00:31:00;18.0;;;6.3;;
69404;SDS011;57084;52.046;5.632;2022-10-13T00:32:00;18.0;;;6.3;;
69404;SDS011;57084;52.046;5.632;2022-10-13T00:33:00;18.0;;;6.3;;
69404;SDS011;57084;52.046;5.632;2022-10-13T00:34:00;13.9;;;6.0;;
69404;SDS011;57084;52.046;5.632;2022-10-13T00:35:00;13.9;;;6.0;;
69404;SDS011;57084;52.046;5.632;2022-10-13T00:36:00;13.9;;;6.0;;
69404;SDS011;57084;52.046;5.632;2022-10-13T00:37:00;13.9;;;6.0;;
69404;SDS011;57084;52.046;5.632;2022-10-13T00:38:00;13.9;;;6.0;;
69404;SDS011;57084;52.046;5.632;2022-10-13T00:39:00;17.2;;;6.7;;
69404;SDS011;57084;52.046;5.632;2022-10-13T00:40:00;17.2;;;6.7;;
69404;SDS011;57084;52.046;5.632;2022-10-13T00:41:00;17.2;;;6.7;;
69404;SDS011;57084;52.046;5.632;2022-10-13T00:42:00;17.2;;;6.7;;
69404;SDS011;57084;52.046;5.632;2022-10-13T00:43:00;17.2;;;6.7;;
69404;SDS011;57084;52.046;5.632;2022-10-13T00:44:02;16.7;;;5.9;;
69404;SDS011;57084;52.046;5.632;2022-10-13T00:45:05;16.7;;;5.9;;
69404;SDS011;57084;52.046;5.632;2022-10-13T00:46:00;16.7;;;5.9;;
69404;SDS011;57084;52.046;5.632;2022-10-13T00:47:00;16.7;;;5.9;;
69404;SDS011;57084;52.046;5.632;2022-10-13T00:48:00;16.7;;;5.9;;
69404;SDS011;57084;52.046;5.632;2022-10-13T00:49:05;15.5;;;6.1;;
69404;SDS011;57084;52.046;5.632;2022-10-13T00:50:00;15.5;;;6.1;;
69404;SDS011;57084;52.046;5.632;2022-10-13T00:51:00;15.5;;;6.1;;
69404;SDS011;57084;52.046;5.632;2022-10-13T00:52:00;15.5;;;6.1;;
69404;SDS011;57084;52.046;5.632;2022-10-13T00:53:00;15.5;;;6.1;;
69404;SDS011;57084;52.046;5.632;2022-10-13T00:54:01;14.8;;;6.1;;
69404;SDS011;57084;52.046;5.632;2022-10-13T00:55:01;14.8;;;6.1;;
69404;SDS011;57084;52.046;5.632;2022-10-13T00:56:00;14.8;;;6.1;;
69404;SDS011;57084;52.046;5.632;2022-10-13T00:57:01;14.8;;;6.1;;
69404;SDS011;57084;52.046;5.632;2022-10-13T00:58:04;14.8;;;6.1;;
69404;SDS011;57084;52.046;5.632;2022-10-13T00:59:00;18.3;;;6.4;;
69404;SDS011;57084;52.046;5.632;2022-10-13T01:00:01;18.3;;;6.4;;
69404;SDS011;57084;52.046;5.632;2022-10-13T01:01:00;18.3;;;6.4;;
69404;SDS011;57084;52.046;5.632;2022-10-13T01:02:01;18.3;;;6.4;;
69404;SDS011;57084;52.046;5.632;2022-10-13T01:03:00;18.3;;;6.4;;
69404;SDS011;57084;52.046;5.632;2022-10-13T01:04:00;18.5;;;5.8;;
69404;SDS011;57084;52.046;5.632;2022-10-13T01:05:00;18.5;;;5.8;;
69404;SDS011;57084;52.046;5.632;2022-10-13T01:06:02;18.5;;;5.8;;
69404;SDS011;57084;52.046;5.632;2022-10-13T01:07:00;18.5;;;5.8;;
69404;SDS011;57084;52.046;5.632;2022-10-13T01:08:00;18.5;;;5.8;;
69404;SDS011;57084;52.046;5.632;2022-10-13T01:09:00;13.9;;;5.9;;
69404;SDS011;57084;52.046;5.632;2022-10-13T01:10:01;13.9;;;5.9;;
69404;SDS011;57084;52.046;5.632;2022-10-13T01:11:11;13.9;;;5.9;;
69404;SDS011;57084;52.046;5.632;2022-10-13T01:12:07;13.9;;;5.9;;
69404;SDS011;57084;52.046;5.632;2022-10-13T01:13:05;13.9;;;5.9;;
69404;SDS011;57084;52.046;5.632;2022-10-13T01:14:06;16.7;;;6.5;;
69404;SDS011;57084;52.046;5.632;2022-10-13T01:15:05;16.7;;;6.5;;
69404;SDS011;57084;52.046;5.632;2022-10-13T01:16:06;16.7;;;6.5;;
69404;SDS011;57084;52.046;5.632;2022-10-13T01:17:05;16.7;;;6.5;;
69404;SDS011;57084;52.046;5.632;2022-10-13T01:18:07;16.7;;;6.5;;
69404;SDS011;57084;52.046;5.632;2022-10-13T01:19:06;15.7;;;6.4;;
69404;SDS011;57084;52.046;5.632;2022-10-13T01:20:13;15.7;;;6.4;;
69404;SDS011;57084;52.046;5.632;2022-10-13T01:21:06;15.7;;;6.4;;
69404;SDS011;57084;52.046;5.632;2022-10-13T01:22:07;15.7;;;6.4;;
69404;SDS011;57084;52.046;5.632;2022-10-13T01:23:15;15.7;;;6.4;;
69404;SDS011;57084;52.046;5.632;2022-10-13T01:24:15;14.5;;;6.0;;
69404;SDS011;57084;52.046;5.632;2022-10-13T01:25:07;14.5;;;6.0;;
69404;SDS011;57084;52.046;5.632;2022-10-13T01:26:13;14.5;;;6.0;;
69404;SDS011;57084;52.046;5.632;2022-10-13T01:27:04;14.5;;;6.0;;
69404;SDS011;57084;52.046;5.632;2022-10-13T01:28:11;14.5;;;6.0;;
69404;SDS011;57084;52.046;5.632;2022-10-13T01:29:11;15.4;;;5.8;;
69404;SDS011;57084;52.046;5.632;2022-10-13T01:30:08;15.4;;;5.8;;
69404;SDS011;57084;52.046;5.632;2022-10-13T01:31:04;15.4;;;5.8;;
69404;SDS011;57084;52.046;5.632;2022-10-13T01:32:05;15.4;;;5.8;;
69404;SDS011;57084;52.046;5.632;2022-10-13T01:33:09;15.4;;;5.8;;
69404;SDS011;57084;52.046;5.632;2022-10-13T01:34:06;14.4;;;6.0;;
69404;SDS011;57084;52.046;5.632;2022-10-13T01:35:05;14.4;;;6.0;;
69404;SDS011;57084;52.046;5.632;2022-10-13T01:36:07;14.4;;;6.0;;
69404;SDS011;57084;52.046;5.632;2022-10-13T01:37:03;14.4;;;6.0;;
69404;SDS011;57084;52.046;5.632;2022-10-13T01:38:06;14.4;;;6.0;;
69404;SDS011;57084;52.046;5.632;2022-10-13T01:39:05;15.6;;;5.9;;
69404;SDS011;57084;52.046;5.632;2022-10-13T01:40:05;15.6;;;5.9;;
69404;SDS011;57084;52.046;5.632;2022-10-13T01:41:06;15.6;;;5.9;;
69404;SDS011;57084;52.046;5.632;2022-10-13T01:42:05;15.6;;;5.9;;
69404;SDS011;57084;52.046;5.632;2022-10-13T01:43:03;15.6;;;5.9;;
69404;SDS011;57084;52.046;5.632;2022-10-13T01:44:05;13.3;;;6.2;;
69404;SDS011;57084;52.046;5.632;2022-10-13T01:45:01;13.3;;;6.2;;
69404;SDS011;57084;52.046;5.632;2022-10-13T01:46:03;13.3;;;6.2;;
69404;SDS011;57084;52.046;5.632;2022-10-13T01:47:01;13.3;;;6.2;;
69404;SDS011;57084;52.046;5.632;2022-10-13T01:48:01;13.3;;;6.2;;
69404;SDS011;57084;52.046;5.632;2022-10-13T01:49:04;14.3;;;6.7;;
69404;SDS011;57084;52.046;5.632;2022-10-13T01:50:01;14.3;;;6.7;;
69404;SDS011;57084;52.046;5.632;2022-10-13T01:51:00;14.3;;;6.7;;
69404;SDS011;57084;52.046;5.632;2022-10-13T01:52:03;14.3;;;6.7;;
69404;SDS011;57084;52.046;5.632;2022-10-13T01:53:01;14.3;;;6.7;;
69404;SDS011;57084;52.046;5.632;2022-10-13T01:54:00;16.3;;;6.0;;
69404;SDS011;57084;52.046;5.632;2022-10-13T01:55:04;16.3;;;6.0;;
69404;SDS011;57084;52.046;5.632;2022-10-13T01:56:00;16.3;;;6.0;;
69404;SDS011;57084;52.046;5.632;2022-10-13T01:57:00;16.3;;;6.0;;
69404;SDS011;57084;52.046;5.632;2022-10-13T01:58:00;16.3;;;6.0;;
69404;SDS011;57084;52.046;5.632;2022-10-13T01:59:02;15.5;;;6.3;;
69404;SDS011;57084;52.046;5.632;2022-10-13T02:00:03;15.5;;;6.3;;
69404;SDS011;57084;52.046;5.632;2022-10-13T02:01:05;15.5;;;6.3;;
69404;SDS011;57084;52.046;5.632;2022-10-13T02:02:07;15.5;;;6.3;;
69404;SDS011;57084;52.046;5.632;2022-10-13T02:03:07;15.5;;;6.3;;
69404;SDS011;57084;52.046;5.632;2022-10-13T02:04:10;17.2;;;6.1;;
69404;SDS011;57084;52.046;5.632;2022-10-13T02:05:08;17.2;;;6.1;;
69404;SDS011;57084;52.046;5.632;2022-10-13T02:06:04;17.2;;;6.1;;
69404;SDS011;57084;52.046;5.632;2022-10-13T02:07:05;17.2;;;6.1;;
69404;SDS011;57084;52.046;5.632;2022-10-13T02:08:04;17.2;;;6.1;;
69404;SDS011;57084;52.046;5.632;2022-10-13T02:09:03;15.8;;;6.7;;
69404;SDS011;57084;52.046;5.632;2022-10-13T02:10:04;15.8;;;6.7;;
69404;SDS011;57084;52.046;5.632;2022-10-13T02:11:05;15.8;;;6.7;;
69404;SDS011;57084;52.046;5.632;2022-10-13T02:12:05;15.8;;;6.7;;
69404;SDS011;57084;52.046;5.632;2022-10-13T02:13:02;15.8;;;6.7;;
69404;SDS011;57084;52.046;5.632;2022-10-13T02:14:04;15.8;;;6.7;;
69404;SDS011;57084;52.046;5.632;2022-10-13T02:15:01;14.2;;;6.0;;
69404;SDS011;57084;52.046;5.632;2022-10-13T02:16:00;14.2;;;6.0;;
69404;SDS011;57084;52.046;5.632;2022-10-13T02:17:01;14.2;;;6.0;;
69404;SDS011;57084;52.046;5.632;2022-10-13T02:18:00;14.2;;;6.0;;
69404;SDS011;57084;52.046;5.632;2022-10-13T02:19:02;14.2;;;6.0;;
69404;SDS011;57084;52.046;5.632;2022-10-13T02:20:00;12.5;;;5.9;;
69404;SDS011;57084;52.046;5.632;2022-10-13T02:21:02;12.5;;;5.9;;
69404;SDS011;57084;52.046;5.632;2022-10-13T02:22:00;12.5;;;5.9;;
69404;SDS011;57084;52.046;5.632;2022-10-13T02:23:03;12.5;;;5.9;;
69404;SDS011;57084;52.046;5.632;2022-10-13T02:24:01;12.5;;;5.9;;
69404;SDS011;57084;52.046;5.632;2022-10-13T02:25:00;15.4;;;5.8;;
69404;SDS011;57084;52.046;5.632;2022-10-13T02:26:00;15.4;;;5.8;;
69404;SDS011;57084;52.046;5.632;2022-10-13T02:27:00;15.4;;;5.8;;
69404;SDS011;57084;52.046;5.632;2022-10-13T02:28:00;15.4;;;5.8;;
69404;SDS011;57084;52.046;5.632;2022-10-13T02:29:06;15.4;;;5.8;;
69404;SDS011;57084;52.046;5.632;2022-10-13T02:30:00;15.1;;;5.6;;
69404;SDS011;57084;52.046;5.632;2022-10-13T02:31:00;15.1;;;5.6;;
69404;SDS011;57084;52.046;5.632;2022-10-13T02:32:00;15.1;;;5.6;;
69404;SDS011;57084;52.046;5.632;2022-10-13T02:33:00;15.1;;;5.6;;
69404;SDS011;57084;52.046;5.632;2022-10-13T02:34:00;15.1;;;5.6;;
69404;SDS011;57084;52.046;5.632;2022-10-13T02:35:00;18.1;;;6.8;;
69404;SDS011;57084;52.046;5.632;2022-10-13T02:36:00;18.1;;;6.8;;
69404;SDS011;57084;52.046;5.632;2022-10-13T02:37:00;18.1;;;6.8;;
69404;SDS011;57084;52.046;5.632;2022-10-13T02:38:00;18.1;;;6.8;;
69404;SDS011;57084;52.046;5.632;2022-10-13T02:39:00;18.1;;;6.8;;
69404;SDS011;57084;52.046;5.632;2022-10-13T02:40:00;13.6;;;5.7;;
69404;SDS011;57084;52.046;5.632;2022-10-13T02:41:00;13.6;;;5.7;;
69404;SDS011;57084;52.046;5.632;2022-10-13T02:42:00;13.6;;;5.7;;
69404;SDS011;57084;52.046;5.632;2022-10-13T02:43:00;13.6;;;5.7;;
69404;SDS011;57084;52.046;5.632;2022-10-13T02:44:00;13.6;;;5.7;;
69404;SDS011;57084;52.046;5.632;2022-10-13T02:45:00;15.9;;;6.0;;
69404;SDS011;57084;52.046;5.632;2022-10-13T02:46:00;15.9;;;6.0;;
69404;SDS011;57084;52.046;5.632;2022-10-13T02:47:00;15.9;;;6.0;;
69404;SDS011;57084;52.046;5.632;2022-10-13T02:48:00;15.9;;;6.0;;
69404;SDS011;57084;52.046;5.632;2022-10-13T02:49:00;15.9;;;6.0;;
69404;SDS011;57084;52.046;5.632;2022-10-13T02:50:00;15.6;;;5.9;;
69404;SDS011;57084;52.046;5.632;2022-10-13T02:51:00;15.6;;;5.9;;
69404;SDS011;57084;52.046;5.632;2022-10-13T02:52:00;15.6;;;5.9;;
69404;SDS011;57084;52.046;5.632;2022-10-13T02:53:00;15.6;;;5.9;;
69404;SDS011;57084;52.046;5.632;2022-10-13T02:54:00;15.6;;;5.9;;
69404;SDS011;57084;52.046;5.632;2022-10-13T02:55:00;15.8;;;6.2;;
69404;SDS011;57084;52.046;5.632;2022-10-13T02:56:00;15.8;;;6.2;;
69404;SDS011;57084;52.046;5.632;2022-10-13T02:57:00;15.8;;;6.2;;
69404;SDS011;57084;52.046;5.632;2022-10-13T02:58:00;15.8;;;6.2;;
69404;SDS011;57084;52.046;5.632;2022-10-13T02:59:00;15.8;;;6.2;;
69404;SDS011;57084;52.046;5.632;2022-10-13T03:00:00;16.2;;;5.9;;
69404;SDS011;57084;52.046;5.632;2022-10-13T03:01:04;16.2;;;5.9;;
69404;SDS011;57084;52.046;5.632;2022-10-13T03:02:00;16.2;;;5.9;;
69404;SDS011;57084;52.046;5.632;2022-10-13T03:03:00;16.2;;;5.9;;
69404;SDS011;57084;52.046;5.632;2022-10-13T03:04:00;16.2;;;5.9;;
69404;SDS011;57084;52.046;5.632;2022-10-13T03:05:00;15.2;;;6.6;;
69404;SDS011;57084;52.046;5.632;2022-10-13T03:06:00;15.2;;;6.6;;
69404;SDS011;57084;52.046;5.632;2022-10-13T03:07:00;15.2;;;6.6;;
69404;SDS011;57084;52.046;5.632;2022-10-13T03:08:00;15.2;;;6.6;;
69404;SDS011;57084;52.046;5.632;2022-10-13T03:09:00;15.2;;;6.6;;
69404;SDS011;57084;52.046;5.632;2022-10-13T03:10:00;14.5;;;6.2;;
69404;SDS011;57084;52.046;5.632;2022-10-13T03:11:00;14.5;;;6.2;;
69404;SDS011;57084;52.046;5.632;2022-10-13T03:12:00;14.5;;;6.2;;
69404;SDS011;57084;52.046;5.632;2022-10-13T03:13:00;14.5;;;6.2;;
69404;SDS011;57084;52.046;5.632;2022-10-13T03:14:00;14.5;;;6.2;;
69404;SDS011;57084;52.046;5.632;2022-10-13T03:15:00;16.7;;;6.5;;
69404;SDS011;57084;52.046;5.632;2022-10-13T03:16:00;16.7;;;6.5;;
69404;SDS011;57084;52.046;5.632;2022-10-13T03:17:00;16.7;;;6.5;;
69404;SDS011;57084;52.046;5.632;2022-10-13T03:18:00;16.7;;;6.5;;
69404;SDS011;57084;52.046;5.632;2022-10-13T03:19:00;16.7;;;6.5;;
69404;SDS011;57084;52.046;5.632;2022-10-13T03:20:00;15.6;;;6.4;;
69404;SDS011;57084;52.046;5.632;2022-10-13T03:21:02;15.6;;;6.4;;
69404;SDS011;57084;52.046;5.632;2022-10-13T03:22:00;15.6;;;6.4;;
69404;SDS011;57084;52.046;5.632;2022-10-13T03:23:00;15.6;;;6.4;;
69404;SDS011;57084;52.046;5.632;2022-10-13T03:24:00;15.6;;;6.4;;
69404;SDS011;57084;52.046;5.632;2022-10-13T03:25:00;13.2;;;6.1;;
69404;SDS011;57084;52.046;5.632;2022-10-13T03:26:00;13.2;;;6.1;;
69404;SDS011;57084;52.046;5.632;2022-10-13T03:27:00;13.2;;;6.1;;
69404;SDS011;57084;52.046;5.632;2022-10-13T03:28:00;13.2;;;6.1;;
69404;SDS011;57084;52.046;5.632;2022-10-13T03:29:00;13.2;;;6.1;;
69404;SDS011;57084;52.046;5.632;2022-10-13T03:30:00;15.7;;;6.7;;
69404;SDS011;57084;52.046;5.632;2022-10-13T03:31:01;15.7;;;6.7;;
69404;SDS011;57084;52.046;5.632;2022-10-13T03:32:00;15.7;;;6.7;;
69404;SDS011;57084;52.046;5.632;2022-10-13T03:33:00;15.7;;;6.7;;
69404;SDS011;57084;52.046;5.632;2022-10-13T03:34:00;15.7;;;6.7;;
69404;SDS011;57084;52.046;5.632;2022-10-13T03:35:00;17.4;;;6.3;;
69404;SDS011;57084;52.046;5.632;2022-10-13T03:36:01;17.4;;;6.3;;
69404;SDS011;57084;52.046;5.632;2022-10-13T03:37:00;17.4;;;6.3;;
69404;SDS011;57084;52.046;5.632;2022-10-13T03:38:00;17.4;;;6.3;;
69404;SDS011;57084;52.046;5.632;2022-10-13T03:39:00;17.4;;;6.3;;
69404;SDS011;57084;52.046;5.632;2022-10-13T03:40:00;15.9;;;6.4;;
69404;SDS011;57084;52.046;5.632;2022-10-13T03:41:03;15.9;;;6.4;;
69404;SDS011;57084;52.046;5.632;2022-10-13T03:42:00;15.9;;;6.4;;
69404;SDS011;57084;52.046;5.632;2022-10-13T03:43:00;15.9;;;6.4;;
69404;SDS011;57084;52.046;5.632;2022-10-13T03:44:00;15.9;;;6.4;;
69404;SDS011;57084;52.046;5.632;2022-10-13T03:45:00;16.8;;;6.2;;
69404;SDS011;57084;52.046;5.632;2022-10-13T03:46:02;16.8;;;6.2;;
69404;SDS011;57084;52.046;5.632;2022-10-13T03:47:00;16.8;;;6.2;;
69404;SDS011;57084;52.046;5.632;2022-10-13T03:48:00;16.8;;;6.2;;
69404;SDS011;57084;52.046;5.632;2022-10-13T03:49:00;16.8;;;6.2;;
69404;SDS011;57084;52.046;5.632;2022-10-13T03:50:00;14.8;;;6.8;;
69404;SDS011;57084;52.046;5.632;2022-10-13T03:51:03;14.8;;;6.8;;
69404;SDS011;57084;52.046;5.632;2022-10-13T03:52:00;14.8;;;6.8;;
69404;SDS011;57084;52.046;5.632;2022-10-13T03:53:00;14.8;;;6.8;;
69404;SDS011;57084;52.046;5.632;2022-10-13T03:54:00;14.8;;;6.8;;
69404;SDS011;57084;52.046;5.632;2022-10-13T03:55:00;16.8;;;6.2;;
69404;SDS011;57084;52.046;5.632;2022-10-13T03:56:00;16.8;;;6.2;;
69404;SDS011;57084;52.046;5.632;2022-10-13T03:57:00;16.8;;;6.2;;
69404;SDS011;57084;52.046;5.632;2022-10-13T03:58:00;16.8;;;6.2;;
69404;SDS011;57084;52.046;5.632;2022-10-13T03:59:01;16.8;;;6.2;;
69404;SDS011;57084;52.046;5.632;2022-10-13T04:00:00;17.1;;;6.0;;
69404;SDS011;57084;52.046;5.632;2022-10-13T04:01:02;17.1;;;6.0;;
69404;SDS011;57084;52.046;5.632;2022-10-13T04:02:00;17.1;;;6.0;;
69404;SDS011;57084;52.046;5.632;2022-10-13T04:03:00;17.1;;;6.0;;
69404;SDS011;57084;52.046;5.632;2022-10-13T04:04:01;17.1;;;6.0;;
69404;SDS011;57084;52.046;5.632;2022-10-13T04:05:00;15.1;;;6.2;;
69404;SDS011;57084;52.046;5.632;2022-10-13T04:06:00;15.1;;;6.2;;
69404;SDS011;57084;52.046;5.632;2022-10-13T04:07:00;15.1;;;6.2;;
69404;SDS011;57084;52.046;5.632;2022-10-13T04:08:00;15.1;;;6.2;;
69404;SDS011;57084;52.046;5.632;2022-10-13T04:09:00;15.1;;;6.2;;
69404;SDS011;57084;52.046;5.632;2022-10-13T04:10:00;16.0;;;6.1;;
69404;SDS011;57084;52.046;5.632;2022-10-13T04:11:01;16.0;;;6.1;;
69404;SDS011;57084;52.046;5.632;2022-10-13T04:12:00;16.0;;;6.1;;
69404;SDS011;57084;52.046;5.632;2022-10-13T04:13:00;16.0;;;6.1;;
69404;SDS011;57084;52.046;5.632;2022-10-13T04:14:00;16.0;;;6.1;;
69404;SDS011;57084;52.046;5.632;2022-10-13T04:15:00;16.0;;;6.1;;
69404;SDS011;57084;52.046;5.632;2022-10-13T04:16:01;14.3;;;5.7;;
69404;SDS011;57084;52.046;5.632;2022-10-13T04:17:00;14.3;;;5.7;;
69404;SDS011;57084;52.046;5.632;2022-10-13T04:18:00;14.3;;;5.7;;
69404;SDS011;57084;52.046;5.632;2022-10-13T04:19:02;14.3;;;5.7;;
69404;SDS011;57084;52.046;5.632;2022-10-13T04:20:00;14.3;;;5.7;;
69404;SDS011;57084;52.046;5.632;2022-10-13T04:21:00;12.6;;;5.9;;
69404;SDS011;57084;52.046;5.632;2022-10-13T04:22:00;12.6;;;5.9;;
69404;SDS011;57084;52.046;5.632;2022-10-13T04:23:00;12.6;;;5.9;;
69404;SDS011;57084;52.046;5.632;2022-10-13T04:24:00;12.6;;;5.9;;
69404;SDS011;57084;52.046;5.632;2022-10-13T04:25:00;12.6;;;5.9;;
69404;SDS011;57084;52.046;5.632;2022-10-13T04:26:00;17.8;;;6.4;;
69404;SDS011;57084;52.046;5.632;2022-10-13T04:27:00;17.8;;;6.4;;
69404;SDS011;57084;52.046;5.632;2022-10-13T04:28:00;17.8;;;6.4;;
69404;SDS011;57084;52.046;5.632;2022-10-13T04:29:02;17.8;;;6.4;;
69404;SDS011;57084;52.046;5.632;2022-10-13T04:30:00;17.8;;;6.4;;
69404;SDS011;57084;52.046;5.632;2022-10-13T04:31:00;15.9;;;6.4;;
69404;SDS011;57084;52.046;5.632;2022-10-13T04:32:00;15.9;;;6.4;;
69404;SDS011;57084;52.046;5.632;2022-10-13T04:33:00;15.9;;;6.4;;
69404;SDS011;57084;52.046;5.632;2022-10-13T04:34:00;15.9;;;6.4;;
69404;SDS011;57084;52.046;5.632;2022-10-13T04:35:00;15.9;;;6.4;;
69404;SDS011;57084;52.046;5.632;2022-10-13T04:36:02;13.5;;;6.2;;
69404;SDS011;57084;52.046;5.632;2022-10-13T04:37:00;13.5;;;6.2;;
69404;SDS011;57084;52.046;5.632;2022-10-13T04:38:00;13.5;;;6.2;;
69404;SDS011;57084;52.046;5.632;2022-10-13T04:39:00;13.5;;;6.2;;
69404;SDS011;57084;52.046;5.632;2022-10-13T04:40:00;13.5;;;6.2;;
69404;SDS011;57084;52.046;5.632;2022-10-13T04:41:01;14.9;;;6.8;;
69404;SDS011;57084;52.046;5.632;2022-10-13T04:42:00;14.9;;;6.8;;
69404;SDS011;57084;52.046;5.632;2022-10-13T04:43:00;14.9;;;6.8;;
69404;SDS011;57084;52.046;5.632;2022-10-13T04:44:00;14.9;;;6.8;;
69404;SDS011;57084;52.046;5.632;2022-10-13T04:45:00;14.9;;;6.8;;
69404;SDS011;57084;52.046;5.632;2022-10-13T04:46:00;17.1;;;5.8;;
69404;SDS011;57084;52.046;5.632;2022-10-13T04:47:00;17.1;;;5.8;;
69404;SDS011;57084;52.046;5.632;2022-10-13T04:48:00;17.1;;;5.8;;
69404;SDS011;57084;52.046;5.632;2022-10-13T04:49:00;17.1;;;5.8;;
69404;SDS011;57084;52.046;5.632;2022-10-13T04:50:00;17.1;;;5.8;;
69404;SDS011;57084;52.046;5.632;2022-10-13T04:51:01;17.4;;;6.5;;
69404;SDS011;57084;52.046;5.632;2022-10-13T04:52:00;17.4;;;6.5;;
69404;SDS011;57084;52.046;5.632;2022-10-13T04:53:00;17.4;;;6.5;;
69404;SDS011;57084;52.046;5.632;2022-10-13T04:54:01;17.4;;;6.5;;
69404;SDS011;57084;52.046;5.632;2022-10-13T04:55:00;17.4;;;6.5;;
69404;SDS011;57084;52.046;5.632;2022-10-13T04:56:01;14.8;;;6.3;;
69404;SDS011;57084;52.046;5.632;2022-10-13T04:57:00;14.8;;;6.3;;
69404;SDS011;57084;52.046;5.632;2022-10-13T04:58:00;14.8;;;6.3;;
69404;SDS011;57084;52.046;5.632;2022-10-13T04:59:00;14.8;;;6.3;;
69404;SDS011;57084;52.046;5.632;2022-10-13T05:00:00;14.8;;;6.3;;
69404;SDS011;57084;52.046;5.632;2022-10-13T05:01:00;12.4;;;6.0;;
69404;SDS011;57084;52.046;5.632;2022-10-13T05:02:00;12.4;;;6.0;;
69404;SDS011;57084;52.046;5.632;2022-10-13T05:03:00;12.4;;;6.0;;
69404;SDS011;57084;52.046;5.632;2022-10-13T05:04:02;12.4;;;6.0;;
69404;SDS011;57084;52.046;5.632;2022-10-13T05:05:00;12.4;;;6.0;;
69404;SDS011;57084;52.046;5.632;2022-10-13T05:06:00;17.4;;;6.1;;
69404;SDS011;57084;52.046;5.632;2022-10-13T05:07:00;17.4;;;6.1;;
69404;SDS011;57084;52.046;5.632;2022-10-13T05:08:00;17.4;;;6.1;;
69404;SDS011;57084;52.046;5.632;2022-10-13T05:09:00;17.4;;;6.1;;
69404;SDS011;57084;52.046;5.632;2022-10-13T05:10:00;17.4;;;6.1;;
69404;SDS011;57084;52.046;5.632;2022-10-13T05:11:00;16.0;;;6.4;;
69404;SDS011;57084;52.046;5.632;2022-10-13T05:12:00;16.0;;;6.4;;
69404;SDS011;57084;52.046;5.632;2022-10-13T05:13:00;16.0;;;6.4;;
69404;SDS011;57084;52.046;5.632;2022-10-13T05:14:00;16.0;;;6.4;;
69404;SDS011;57084;52.046;5.632;2022-10-13T05:15:00;16.0;;;6.4;;
69404;SDS011;57084;52.046;5.632;2022-10-13T05:16:04;20.5;;;6.4;;
69404;SDS011;57084;52.046;5.632;2022-10-13T05:17:00;20.5;;;6.4;;
69404;SDS011;57084;52.046;5.632;2022-10-13T05:18:00;20.5;;;6.4;;
69404;SDS011;57084;52.046;5.632;2022-10-13T05:19:00;20.5;;;6.4;;
69404;SDS011;57084;52.046;5.632;2022-10-13T05:20:00;20.5;;;6.4;;
69404;SDS011;57084;52.046;5.632;2022-10-13T05:21:05;18.5;;;6.1;;
69404;SDS011;57084;52.046;5.632;2022-10-13T05:22:00;18.5;;;6.1;;
69404;SDS011;57084;52.046;5.632;2022-10-13T05:23:00;18.5;;;6.1;;
69404;SDS011;57084;52.046;5.632;2022-10-13T05:24:00;18.5;;;6.1;;
69404;SDS011;57084;52.046;5.632;2022-10-13T05:25:00;18.5;;;6.1;;
69404;SDS011;57084;52.046;5.632;2022-10-13T05:26:01;17.9;;;6.6;;
69404;SDS011;57084;52.046;5.632;2022-10-13T05:27:00;17.9;;;6.6;;
69404;SDS011;57084;52.046;5.632;2022-10-13T05:28:00;17.9;;;6.6;;
69404;SDS011;57084;52.046;5.632;2022-10-13T05:29:01;17.9;;;6.6;;
69404;SDS011;57084;52.046;5.632;2022-10-13T05:30:00;17.9;;;6.6;;
69404;SDS011;57084;52.046;5.632;2022-10-13T05:31:07;16.8;;;5.7;;
69404;SDS011;57084;52.046;5.632;2022-10-13T05:32:00;16.8;;;5.7;;
69404;SDS011;57084;52.046;5.632;2022-10-13T05:33:00;16.8;;;5.7;;
69404;SDS011;57084;52.046;5.632;2022-10-13T05:34:00;16.8;;;5.7;;
69404;SDS011;57084;52.046;5.632;2022-10-13T05:35:00;16.8;;;5.7;;
69404;SDS011;57084;52.046;5.632;2022-10-13T05:36:03;13.0;;;5.9;;
69404;SDS011;57084;52.046;5.632;2022-10-13T05:37:00;13.0;;;5.9;;
69404;SDS011;57084;52.046;5.632;2022-10-13T05:38:00;13.0;;;5.9;;
69404;SDS011;57084;52.046;5.632;2022-10-13T05:39:02;13.0;;;5.9;;
69404;SDS011;57084;52.046;5.632;2022-10-13T05:40:00;13.0;;;5.9;;
69404;SDS011;57084;52.046;5.632;2022-10-13T05:41:02;22.1;;;6.3;;
69404;SDS011;57084;52.046;5.632;2022-10-13T05:42:00;22.1;;;6.3;;
69404;SDS011;57084;52.046;5.632;2022-10-13T05:43:00;22.1;;;6.3;;
69404;SDS011;57084;52.046;5.632;2022-10-13T05:44:01;22.1;;;6.3;;
69404;SDS011;57084;52.046;5.632;2022-10-13T05:45:00;22.1;;;6.3;;
69404;SDS011;57084;52.046;5.632;2022-10-13T05:46:00;13.5;;;5.8;;
69404;SDS011;57084;52.046;5.632;2022-10-13T05:47:00;13.5;;;5.8;;
69404;SDS011;57084;52.046;5.632;2022-10-13T05:48:00;13.5;;;5.8;;
69404;SDS011;57084;52.046;5.632;2022-10-13T05:49:00;13.5;;;5.8;;
69404;SDS011;57084;52.046;5.632;2022-10-13T05:50:00;13.5;;;5.8;;
69404;SDS011;57084;52.046;5.632;2022-10-13T05:51:04;15.8;;;6.1;;
69404;SDS011;57084;52.046;5.632;2022-10-13T05:52:01;15.8;;;6.1;;
69404;SDS011;57084;52.046;5.632;2022-10-13T05:53:00;15.8;;;6.1;;
69404;SDS011;57084;52.046;5.632;2022-10-13T05:54:03;15.8;;;6.1;;
69404;SDS011;57084;52.046;5.632;2022-10-13T05:55:02;15.8;;;6.1;;
69404;SDS011;57084;52.046;5.632;2022-10-13T05:56:04;15.5;;;6.1;;
69404;SDS011;57084;52.046;5.632;2022-10-13T05:57:02;15.5;;;6.1;;
69404;SDS011;57084;52.046;5.632;2022-10-13T05:58:00;15.5;;;6.1;;
69404;SDS011;57084;52.046;5.632;2022-10-13T05:59:02;15.5;;;6.1;;
69404;SDS011;57084;52.046;5.632;2022-10-13T06:00:03;15.5;;;6.1;;
69404;SDS011;57084;52.046;5.632;2022-10-13T06:01:00;16.1;;;6.2;;
69404;SDS011;57084;52.046;5.632;2022-10-13T06:02:01;16.1;;;6.2;;
69404;SDS011;57084;52.046;5.632;2022-10-13T06:03:02;16.1;;;6.2;;
69404;SDS011;57084;52.046;5.632;2022-10-13T06:04:03;16.1;;;6.2;;
69404;SDS011;57084;52.046;5.632;2022-10-13T06:05:02;16.1;;;6.2;;
69404;SDS011;57084;52.046;5.632;2022-10-13T06:06:00;22.0;;;6.0;;